Time;durP1;ratioP1;P1;durP2;ratioP2;P2;SDS_P1;SDS_P2;PMS_P1;PMS_P2;Temp;Humidity;BMP_temperature;BMP_pressure;BME280_temperature;BME280_humidity;BME280_pressure;Samples;Min_cycle;Max_cycle;Signal;HPM_P1;HPM_P2
2023/06/21 00:00:33;;;;;;;12.63;9.45;;;;;;;;;;4975482;28;20465;-62
2023/06/21 00:02:59;;;;;;;10.68;9.43;;;;;;;;;;4977255;28;20030;-62
2023/06/21 00:05:26;;;;;;;11.30;9.75;;;;;;;;;;4978530;28;20037;-61
2023/06/21 00:07:55;;;;;;;12.43;9.68;;;;;;;;;;4977678;28;20026;-61
2023/06/21 00:10:24;;;;;;;11.50;9.40;;;;;;;;;;4977054;28;20658;-62
2023/06/21 00:12:51;;;;;;;13.95;10.07;;;;;;;;;;4978060;28;20034;-62
2023/06/21 00:15:17;;;;;;;12.73;10.75;;;;;;;;;;4965490;28;20038;-61
2023/06/21 00:17:43;;;;;;;11.65;10.40;;;;;;;;;;4977132;28;20060;-61
2023/06/21 00:20:10;;;;;;;15.95;11.00;;;;;;;;;;4976948;28;20042;-62
2023/06/21 00:22:37;;;;;;;11.98;10.77;;;;;;;;;;5009157;28;20038;-61
2023/06/21 00:25:03;;;;;;;12.68;10.50;;;;;;;;;;4977890;28;20149;-62
2023/06/21 00:27:29;;;;;;;12.48;10.50;;;;;;;;;;4976326;28;20090;-61
2023/06/21 00:29:55;;;;;;;12.27;10.95;;;;;;;;;;4976187;28;20030;-62
2023/06/21 00:32:21;;;;;;;16.23;11.02;;;;;;;;;;4978045;28;20038;-61
2023/06/21 00:34:47;;;;;;;12.18;10.50;;;;;;;;;;4977541;28;20896;-61
2023/06/21 00:37:14;;;;;;;13.35;11.27;;;;;;;;;;4977552;28;20037;-62
2023/06/21 00:39:40;;;;;;;13.13;11.38;;;;;;;;;;4977536;28;20038;-61
2023/06/21 00:42:07;;;;;;;12.50;11.23;;;;;;;;;;4976349;28;20042;-62
2023/06/21 00:44:33;;;;;;;14.30;11.45;;;;;;;;;;4977830;28;20026;-62
2023/06/21 00:46:59;;;;;;;15.07;11.90;;;;;;;;;;5008744;28;20448;-62
2023/06/21 00:49:27;;;;;;;16.13;11.55;;;;;;;;;;4976187;28;20951;-61
2023/06/21 00:51:57;;;;;;;12.90;11.02;;;;;;;;;;4977488;28;20037;-62
2023/06/21 00:54:23;;;;;;;15.27;12.80;;;;;;;;;;4977364;28;20034;-61
2023/06/21 00:56:49;;;;;;;14.88;11.82;;;;;;;;;;4977591;28;20054;-61
2023/06/21 00:59:15;;;;;;;27.00;12.98;;;;;;;;;;4976655;28;20038;-61
2023/06/21 01:01:41;;;;;;;15.25;12.73;;;;;;;;;;4977397;28;20413;-61
2023/06/21 01:04:08;;;;;;;15.07;13.40;;;;;;;;;;4977533;28;20169;-61
2023/06/21 01:06:40;;;;;;;16.05;13.38;;;;;;;;;;4977591;28;21071;-62
2023/06/21 01:09:12;;;;;;;15.57;13.90;;;;;;;;;;4978380;28;20528;-62
2023/06/21 01:11:58;;;;;;;15.10;13.32;;;;;;;;;;4979886;28;20034;-61
2023/06/21 01:14:31;;;;;;;14.93;12.77;;;;;;;;;;4979723;28;20030;-62
2023/06/21 01:16:58;;;;;;;14.43;12.95;;;;;;;;;;4979120;28;20023;-61
2023/06/21 01:19:30;;;;;;;15.80;14.20;;;;;;;;;;4978989;28;20148;-61
2023/06/21 01:21:57;;;;;;;17.10;14.23;;;;;;;;;;4980084;28;20046;-61
2023/06/21 01:24:41;;;;;;;15.57;13.95;;;;;;;;;;4978864;28;20073;-61
2023/06/21 01:27:21;;;;;;;16.35;13.77;;;;;;;;;;4977914;28;20026;-62
2023/06/21 01:29:49;;;;;;;17.92;14.60;;;;;;;;;;4979712;28;20030;-61
2023/06/21 01:32:16;;;;;;;16.88;15.07;;;;;;;;;;4979452;28;20542;-62
2023/06/21 01:34:43;;;;;;;18.75;16.65;;;;;;;;;;4980777;28;20061;-61
2023/06/21 01:37:09;;;;;;;18.38;16.30;;;;;;;;;;4978937;28;20076;-61
2023/06/21 01:39:35;;;;;;;19.88;15.75;;;;;;;;;;4979749;28;20035;-62
2023/06/21 01:42:04;;;;;;;16.63;14.90;;;;;;;;;;4966648;28;20073;-62
2023/06/21 01:44:30;;;;;;;18.25;15.68;;;;;;;;;;4980049;28;20057;-62
2023/06/21 01:46:58;;;;;;;19.17;16.58;;;;;;;;;;5011199;28;20972;-62
2023/06/21 01:49:25;;;;;;;18.35;16.30;;;;;;;;;;4977584;28;20421;-61
2023/06/21 01:51:51;;;;;;;19.15;17.02;;;;;;;;;;4979146;28;20036;-62
2023/06/21 01:54:20;;;;;;;20.23;15.80;;;;;;;;;;4980249;28;20994;-61
2023/06/21 01:56:47;;;;;;;19.90;16.98;;;;;;;;;;4980428;28;20053;-61
2023/06/21 01:59:14;;;;;;;21.88;16.45;;;;;;;;;;4978884;28;20030;-61
2023/06/21 02:01:42;;;;;;;21.58;16.23;;;;;;;;;;4978548;28;20042;-61
2023/06/21 02:04:08;;;;;;;17.90;16.00;;;;;;;;;;4978028;28;21870;-61
2023/06/21 02:06:35;;;;;;;18.20;16.05;;;;;;;;;;4978464;28;20534;-61
2023/06/21 02:09:05;;;;;;;21.92;16.95;;;;;;;;;;4979457;28;21824;-61
2023/06/21 02:11:32;;;;;;;20.00;17.35;;;;;;;;;;4979679;28;20040;-61
2023/06/21 02:13:58;;;;;;;19.50;17.40;;;;;;;;;;4979885;28;20041;-62
2023/06/21 02:16:31;;;;;;;22.10;19.75;;;;;;;;;;4979342;28;20125;-62
2023/06/21 02:18:57;;;;;;;23.17;19.10;;;;;;;;;;4967891;28;20033;-62
2023/06/21 02:21:23;;;;;;;21.88;18.65;;;;;;;;;;4978224;28;20077;-62
2023/06/21 02:23:50;;;;;;;22.92;19.75;;;;;;;;;;4979409;28;20122;-61
2023/06/21 02:26:17;;;;;;;24.30;20.33;;;;;;;;;;4979463;28;20034;-62
2023/06/21 02:28:43;;;;;;;26.30;22.05;;;;;;;;;;4979437;28;20058;-62
2023/06/21 02:31:09;;;;;;;29.65;22.88;;;;;;;;;;4980613;28;20045;-61
2023/06/21 02:33:35;;;;;;;24.40;21.80;;;;;;;;;;4966345;28;20038;-61
2023/06/21 02:36:01;;;;;;;26.45;23.58;;;;;;;;;;4980598;28;20034;-62
2023/06/21 02:38:28;;;;;;;27.65;22.70;;;;;;;;;;4979481;28;20390;-62
2023/06/21 02:40:54;;;;;;;23.38;20.95;;;;;;;;;;4979827;28;20042;-61
2023/06/21 02:43:21;;;;;;;27.77;23.50;;;;;;;;;;4978353;28;20025;-61
2023/06/21 02:45:47;;;;;;;25.45;22.75;;;;;;;;;;4978927;28;20034;-62
2023/06/21 02:48:13;;;;;;;25.65;22.30;;;;;;;;;;4979609;28;20043;-62
2023/06/21 02:50:40;;;;;;;24.95;21.95;;;;;;;;;;4978568;28;20026;-62
2023/06/21 02:53:06;;;;;;;24.67;22.15;;;;;;;;;;4978914;28;20037;-61
2023/06/21 02:55:32;;;;;;;25.58;22.92;;;;;;;;;;4977863;28;20493;-61
2023/06/21 02:57:58;;;;;;;23.58;21.08;;;;;;;;;;4979704;28;20759;-62
2023/06/21 03:00:33;;;;;;;27.92;22.25;;;;;;;;;;4978393;28;20060;-61
2023/06/21 03:03:00;;;;;;;23.30;20.83;;;;;;;;;;4977185;28;20588;-62
2023/06/21 03:05:30;;;;;;;26.00;21.85;;;;;;;;;;4979264;28;20034;-62
2023/06/21 03:07:56;;;;;;;24.92;22.30;;;;;;;;;;4978175;28;20045;-62
2023/06/21 03:10:23;;;;;;;29.25;22.90;;;;;;;;;;4978628;28;20085;-61
2023/06/21 03:12:49;;;;;;;26.33;23.27;;;;;;;;;;4978735;28;20038;-62
2023/06/21 03:15:15;;;;;;;27.17;23.15;;;;;;;;;;4978250;28;20034;-62
2023/06/21 03:17:41;;;;;;;25.55;22.83;;;;;;;;;;4978426;28;20134;-61
2023/06/21 03:20:12;;;;;;;29.23;23.98;;;;;;;;;;4978092;28;20037;-61
2023/06/21 03:22:42;;;;;;;29.50;24.33;;;;;;;;;;4977824;28;20038;-62
2023/06/21 03:25:09;;;;;;;30.80;25.58;;;;;;;;;;4977546;28;20026;-61
2023/06/21 03:27:36;;;;;;;26.42;23.58;;;;;;;;;;4979005;28;20105;-61
2023/06/21 03:30:02;;;;;;;28.88;25.65;;;;;;;;;;4977245;28;20285;-61
2023/06/21 03:32:28;;;;;;;30.52;26.15;;;;;;;;;;4978101;28;20037;-62
2023/06/21 03:34:54;;;;;;;28.08;25.02;;;;;;;;;;4978269;28;20030;-61
2023/06/21 03:37:20;;;;;;;28.08;23.58;;;;;;;;;;4978607;28;20038;-62
2023/06/21 03:39:46;;;;;;;26.77;23.67;;;;;;;;;;4978216;28;20036;-62
2023/06/21 03:42:12;;;;;;;25.60;22.90;;;;;;;;;;4977660;28;20129;-62
2023/06/21 03:44:38;;;;;;;30.23;25.45;;;;;;;;;;4978100;28;21290;-62
2023/06/21 03:47:04;;;;;;;30.77;25.00;;;;;;;;;;4976683;28;20486;-62
2023/06/21 03:49:30;;;;;;;27.60;23.20;;;;;;;;;;4977582;28;20037;-61
2023/06/21 03:51:56;;;;;;;30.75;25.25;;;;;;;;;;4976891;28;20039;-62
2023/06/21 03:54:22;;;;;;;26.85;23.95;;;;;;;;;;4977758;28;20120;-62
2023/06/21 03:56:48;;;;;;;27.65;23.73;;;;;;;;;;4978586;28;20067;-61
2023/06/21 03:59:15;;;;;;;28.13;24.25;;;;;;;;;;4978190;28;20045;-62
2023/06/21 04:01:41;;;;;;;29.40;24.70;;;;;;;;;;4977629;28;20046;-62
2023/06/21 04:04:07;;;;;;;27.08;24.17;;;;;;;;;;4976983;28;20163;-61
2023/06/21 04:06:33;;;;;;;25.02;22.40;;;;;;;;;;4976326;28;21225;-61
2023/06/21 04:08:59;;;;;;;29.65;25.73;;;;;;;;;;4977395;28;20408;-62
2023/06/21 04:11:25;;;;;;;29.58;24.98;;;;;;;;;;4976939;28;20049;-61
2023/06/21 04:13:51;;;;;;;29.42;26.08;;;;;;;;;;4975032;28;20038;-61
2023/06/21 04:16:17;;;;;;;27.85;24.65;;;;;;;;;;4973911;28;20062;-61
2023/06/21 04:18:43;;;;;;;26.67;23.10;;;;;;;;;;4976079;28;20045;-61
2023/06/21 04:21:10;;;;;;;31.15;24.92;;;;;;;;;;4975888;28;20042;-61
2023/06/21 04:23:36;;;;;;;29.00;24.88;;;;;;;;;;4975666;28;20101;-61
2023/06/21 04:26:05;;;;;;;27.92;24.58;;;;;;;;;;4978445;28;20080;-61
2023/06/21 04:28:31;;;;;;;27.15;24.02;;;;;;;;;;4977766;28;20022;-61
2023/06/21 04:30:58;;;;;;;30.92;25.70;;;;;;;;;;4974876;28;20113;-61
2023/06/21 04:33:24;;;;;;;27.50;24.40;;;;;;;;;;4977634;28;20512;-61
2023/06/21 04:35:50;;;;;;;27.60;24.25;;;;;;;;;;4977430;28;20037;-62
2023/06/21 04:38:16;;;;;;;27.45;24.30;;;;;;;;;;4976360;28;20486;-61
2023/06/21 04:40:43;;;;;;;28.30;24.27;;;;;;;;;;4977574;28;20023;-61
2023/06/21 04:43:09;;;;;;;31.48;24.10;;;;;;;;;;4978085;28;20042;-62
2023/06/21 04:45:36;;;;;;;26.20;22.85;;;;;;;;;;4977303;28;20042;-62
2023/06/21 04:48:03;;;;;;;27.45;22.58;;;;;;;;;;4975310;28;20153;-62
2023/06/21 04:50:30;;;;;;;33.67;22.10;;;;;;;;;;4977742;28;20039;-61
2023/06/21 04:52:59;;;;;;;31.00;23.80;;;;;;;;;;4978152;28;20184;-62
2023/06/21 04:55:25;;;;;;;24.67;21.40;;;;;;;;;;5007990;28;20536;-61
2023/06/21 04:57:51;;;;;;;26.58;21.08;;;;;;;;;;4975629;28;20117;-62
2023/06/21 05:00:18;;;;;;;26.08;21.77;;;;;;;;;;4974849;28;20116;-61
2023/06/21 05:02:44;;;;;;;29.63;21.77;;;;;;;;;;4975913;28;20054;-62
2023/06/21 05:05:10;;;;;;;28.23;21.35;;;;;;;;;;4976169;28;20034;-62
2023/06/21 05:07:38;;;;;;;26.23;20.83;;;;;;;;;;4976436;28;20627;-61
2023/06/21 05:10:08;;;;;;;24.40;18.92;;;;;;;;;;4976078;28;20330;-61
2023/06/21 05:12:34;;;;;;;27.52;19.35;;;;;;;;;;4977201;28;20042;-61
2023/06/21 05:15:00;;;;;;;24.95;18.20;;;;;;;;;;4976147;28;20392;-61
2023/06/21 05:17:26;;;;;;;22.55;16.83;;;;;;;;;;4976772;28;20057;-62
2023/06/21 05:19:52;;;;;;;22.67;16.23;;;;;;;;;;4977360;28;20039;-62
2023/06/21 05:22:18;;;;;;;26.73;16.75;;;;;;;;;;4977648;28;20089;-61
2023/06/21 05:24:44;;;;;;;20.52;15.82;;;;;;;;;;4977929;28;20084;-62
2023/06/21 05:27:11;;;;;;;19.63;15.95;;;;;;;;;;4977042;28;20038;-61
2023/06/21 05:29:38;;;;;;;18.73;14.48;;;;;;;;;;4977027;28;22049;-62
2023/06/21 05:32:04;;;;;;;21.65;14.68;;;;;;;;;;4977042;28;20069;-61
2023/06/21 05:34:31;;;;;;;22.02;15.10;;;;;;;;;;4976658;28;20041;-61
2023/06/21 05:36:57;;;;;;;21.90;14.07;;;;;;;;;;4975069;28;20053;-61
2023/06/21 05:39:23;;;;;;;20.52;14.63;;;;;;;;;;4976463;28;20097;-61
2023/06/21 05:41:49;;;;;;;21.23;14.32;;;;;;;;;;4976134;28;20485;-61
2023/06/21 05:44:16;;;;;;;20.13;13.55;;;;;;;;;;4976715;28;20022;-61
2023/06/21 05:46:42;;;;;;;18.73;14.50;;;;;;;;;;4976101;28;20042;-61
2023/06/21 05:49:08;;;;;;;20.05;13.10;;;;;;;;;;4976183;28;20045;-61
2023/06/21 05:51:34;;;;;;;21.52;13.57;;;;;;;;;;4977247;28;20057;-61
2023/06/21 05:54:00;;;;;;;17.08;12.15;;;;;;;;;;4976888;28;20033;-61
2023/06/21 05:56:27;;;;;;;19.45;12.60;;;;;;;;;;4978177;28;20031;-61
2023/06/21 05:58:53;;;;;;;21.10;13.43;;;;;;;;;;4980699;28;20041;-61
2023/06/21 06:01:20;;;;;;;18.00;11.57;;;;;;;;;;4980710;28;20085;-61
2023/06/21 06:03:46;;;;;;;21.05;13.30;;;;;;;;;;4979789;28;20151;-61
2023/06/21 06:06:15;;;;;;;17.20;11.55;;;;;;;;;;4980260;28;20033;-61
2023/06/21 06:08:42;;;;;;;19.73;13.38;;;;;;;;;;4980729;28;20029;-61
2023/06/21 06:11:08;;;;;;;19.02;11.50;;;;;;;;;;4980107;28;20081;-61
2023/06/21 06:13:34;;;;;;;19.15;13.00;;;;;;;;;;4979480;28;20070;-61
2023/06/21 06:16:00;;;;;;;16.55;11.95;;;;;;;;;;4977047;28;20037;-61
2023/06/21 06:18:27;;;;;;;13.30;10.68;;;;;;;;;;4978623;28;20052;-63
2023/06/21 06:20:53;;;;;;;17.90;12.27;;;;;;;;;;4977881;28;20034;-62
2023/06/21 06:23:19;;;;;;;18.30;11.75;;;;;;;;;;4971725;28;20533;-62
2023/06/21 06:25:45;;;;;;;19.48;10.95;;;;;;;;;;4971317;28;20520;-62
2023/06/21 06:28:12;;;;;;;17.73;12.80;;;;;;;;;;4976715;28;20501;-62
2023/06/21 06:30:38;;;;;;;18.17;12.75;;;;;;;;;;4978690;28;20125;-62
2023/06/21 06:33:04;;;;;;;20.45;12.50;;;;;;;;;;4978551;28;20040;-62
2023/06/21 06:35:30;;;;;;;16.55;12.20;;;;;;;;;;4977239;28;20117;-62
2023/06/21 06:37:56;;;;;;;17.83;12.77;;;;;;;;;;4978204;28;20121;-62
2023/06/21 06:40:22;;;;;;;18.77;12.88;;;;;;;;;;4966833;28;20148;-63
2023/06/21 06:42:48;;;;;;;14.57;11.10;;;;;;;;;;4977773;28;20045;-62
2023/06/21 06:45:14;;;;;;;18.17;11.50;;;;;;;;;;4978945;28;20038;-62
2023/06/21 06:47:40;;;;;;;16.02;11.95;;;;;;;;;;4978627;28;20068;-63
2023/06/21 06:50:07;;;;;;;15.90;10.95;;;;;;;;;;4976245;28;20029;-63
2023/06/21 06:52:33;;;;;;;15.05;10.63;;;;;;;;;;4975761;28;20038;-62
2023/06/21 06:54:59;;;;;;;15.30;11.02;;;;;;;;;;4978318;28;21103;-62
2023/06/21 06:57:25;;;;;;;13.60;9.40;;;;;;;;;;4976898;28;20045;-63
2023/06/21 06:59:51;;;;;;;12.18;9.38;;;;;;;;;;4978097;28;20045;-62
2023/06/21 07:02:17;;;;;;;14.45;9.35;;;;;;;;;;4978172;28;20045;-62
2023/06/21 07:04:43;;;;;;;12.60;7.72;;;;;;;;;;4979259;28;20030;-62
2023/06/21 07:07:09;;;;;;;14.15;8.88;;;;;;;;;;4977204;28;20034;-63
2023/06/21 07:09:37;;;;;;;13.05;8.63;;;;;;;;;;4977271;28;20022;-62
2023/06/21 07:12:03;;;;;;;14.73;9.68;;;;;;;;;;4978049;28;20153;-62
2023/06/21 07:14:30;;;;;;;15.48;8.23;;;;;;;;;;4978879;28;20038;-62
2023/06/21 07:16:56;;;;;;;13.45;8.55;;;;;;;;;;4978410;28;20041;-62
2023/06/21 07:19:22;;;;;;;13.98;7.05;;;;;;;;;;4978630;28;20053;-62
2023/06/21 07:21:49;;;;;;;16.58;7.43;;;;;;;;;;4978277;28;20042;-62
2023/06/21 07:24:15;;;;;;;13.10;7.10;;;;;;;;;;4979089;28;20046;-62
2023/06/21 07:26:41;;;;;;;13.25;6.85;;;;;;;;;;4979085;28;20118;-62
2023/06/21 07:29:07;;;;;;;13.10;7.65;;;;;;;;;;4978825;28;20034;-62
2023/06/21 07:31:33;;;;;;;11.82;7.78;;;;;;;;;;4979690;28;20046;-62
2023/06/21 07:34:03;;;;;;;13.07;6.90;;;;;;;;;;4978402;28;20030;-62
2023/06/21 07:36:29;;;;;;;11.18;7.20;;;;;;;;;;4977498;28;20404;-62
2023/06/21 07:38:56;;;;;;;9.70;6.40;;;;;;;;;;4978474;28;20038;-61
2023/06/21 07:41:22;;;;;;;12.77;7.63;;;;;;;;;;4978599;28;20045;-61
2023/06/21 07:43:48;;;;;;;10.75;6.75;;;;;;;;;;4978791;28;20552;-61
2023/06/21 07:46:14;;;;;;;11.52;7.35;;;;;;;;;;4976869;28;20030;-61
2023/06/21 07:48:40;;;;;;;10.85;6.20;;;;;;;;;;4976455;28;20042;-61
2023/06/21 07:51:06;;;;;;;12.70;6.20;;;;;;;;;;4977592;28;20035;-61
2023/06/21 07:53:32;;;;;;;12.43;6.57;;;;;;;;;;4978204;28;20037;-61
2023/06/21 07:56:01;;;;;;;11.02;6.43;;;;;;;;;;4976435;28;20035;-61
2023/06/21 07:58:27;;;;;;;13.38;7.22;;;;;;;;;;4978374;28;20032;-61
2023/06/21 08:00:54;;;;;;;11.52;6.25;;;;;;;;;;4978137;28;20075;-61
2023/06/21 08:03:20;;;;;;;11.52;5.75;;;;;;;;;;4978335;28;20050;-61
2023/06/21 08:05:46;;;;;;;10.90;6.32;;;;;;;;;;4977480;28;20033;-61
2023/06/21 08:08:12;;;;;;;10.80;6.13;;;;;;;;;;4975920;28;20084;-61
2023/06/21 08:10:38;;;;;;;10.38;6.25;;;;;;;;;;4978568;28;20967;-61
2023/06/21 08:13:04;;;;;;;9.60;5.30;;;;;;;;;;4976959;28;20048;-61
2023/06/21 08:15:30;;;;;;;14.15;6.13;;;;;;;;;;4977281;28;20426;-61
2023/06/21 08:17:56;;;;;;;8.68;5.60;;;;;;;;;;4976373;28;20506;-61
2023/06/21 08:20:23;;;;;;;7.90;5.53;;;;;;;;;;4977838;28;20034;-61
2023/06/21 08:22:49;;;;;;;9.55;6.20;;;;;;;;;;4977532;28;20054;-61
2023/06/21 08:25:15;;;;;;;10.77;6.18;;;;;;;;;;4978011;28;20033;-61
2023/06/21 08:27:41;;;;;;;17.90;5.80;;;;;;;;;;4978841;28;20751;-61
2023/06/21 08:30:07;;;;;;;10.32;5.63;;;;;;;;;;4976627;28;20505;-61
2023/06/21 08:32:33;;;;;;;11.32;5.95;;;;;;;;;;4978426;28;20042;-61
2023/06/21 08:34:59;;;;;;;12.05;6.13;;;;;;;;;;4977191;28;20044;-61
2023/06/21 08:37:25;;;;;;;9.65;5.82;;;;;;;;;;4977448;28;20042;-61
2023/06/21 08:39:52;;;;;;;8.38;5.70;;;;;;;;;;4974669;28;20060;-61
2023/06/21 08:42:23;;;;;;;9.07;5.45;;;;;;;;;;4977393;28;20735;-61
2023/06/21 08:44:49;;;;;;;9.23;5.10;;;;;;;;;;4976613;28;20058;-61
2023/06/21 08:47:16;;;;;;;10.77;5.53;;;;;;;;;;4977665;28;20042;-61
2023/06/21 08:49:42;;;;;;;9.85;5.82;;;;;;;;;;4975776;28;20041;-61
2023/06/21 08:52:10;;;;;;;10.52;5.20;;;;;;;;;;4976706;28;20120;-61
2023/06/21 08:54:38;;;;;;;8.48;5.97;;;;;;;;;;4976479;28;20061;-61
2023/06/21 08:57:08;;;;;;;10.27;5.53;;;;;;;;;;4977700;28;20070;-61
2023/06/21 08:59:54;;;;;;;7.25;5.10;;;;;;;;;;4976923;28;20081;-61
2023/06/21 09:02:21;;;;;;;8.20;4.95;;;;;;;;;;4976663;28;20038;-61
2023/06/21 09:04:50;;;;;;;8.02;4.72;;;;;;;;;;4973798;28;20033;-61
2023/06/21 09:07:16;;;;;;;7.30;4.97;;;;;;;;;;4978282;28;20450;-61
2023/06/21 09:09:44;;;;;;;7.32;4.88;;;;;;;;;;4974971;28;20026;-62
2023/06/21 09:12:12;;;;;;;8.10;4.72;;;;;;;;;;4977500;28;20061;-61
2023/06/21 09:14:38;;;;;;;7.10;4.47;;;;;;;;;;4976264;28;20041;-61
2023/06/21 09:17:05;;;;;;;6.97;4.28;;;;;;;;;;4977239;28;20483;-61
2023/06/21 09:19:31;;;;;;;7.28;3.67;;;;;;;;;;4977830;28;20039;-61
2023/06/21 09:22:00;;;;;;;7.32;4.25;;;;;;;;;;4976439;28;20031;-61
2023/06/21 09:24:26;;;;;;;7.00;3.85;;;;;;;;;;4978245;28;20034;-61
2023/06/21 09:26:53;;;;;;;7.75;4.15;;;;;;;;;;4977835;28;20037;-61
2023/06/21 09:29:19;;;;;;;7.63;4.35;;;;;;;;;;4977586;28;20035;-61
2023/06/21 09:31:45;;;;;;;7.85;4.50;;;;;;;;;;4981298;28;20033;-61
2023/06/21 09:34:11;;;;;;;8.40;4.78;;;;;;;;;;4980811;28;20038;-61
2023/06/21 09:36:40;;;;;;;9.18;4.57;;;;;;;;;;4980102;28;20030;-61
2023/06/21 09:39:10;;;;;;;7.38;4.55;;;;;;;;;;4981390;28;20031;-61
2023/06/21 09:41:36;;;;;;;7.38;4.63;;;;;;;;;;4980052;28;20042;-61
2023/06/21 09:44:02;;;;;;;8.40;5.00;;;;;;;;;;4979713;28;20357;-61
2023/06/21 09:46:28;;;;;;;7.32;4.07;;;;;;;;;;4979588;28;20096;-61
2023/06/21 09:48:54;;;;;;;7.85;3.95;;;;;;;;;;4980694;28;20643;-61
2023/06/21 09:51:24;;;;;;;10.00;4.25;;;;;;;;;;4979841;28;20065;-61
2023/06/21 09:53:51;;;;;;;7.65;4.28;;;;;;;;;;4980350;28;20485;-61
2023/06/21 09:56:18;;;;;;;7.55;3.72;;;;;;;;;;4980682;28;20774;-61
2023/06/21 09:58:45;;;;;;;7.00;4.35;;;;;;;;;;4981537;28;20113;-61
2023/06/21 10:01:15;;;;;;;6.55;3.83;;;;;;;;;;4980182;28;20037;-61
2023/06/21 10:03:43;;;;;;;8.07;3.88;;;;;;;;;;4980783;28;20077;-61
2023/06/21 10:06:16;;;;;;;10.07;4.45;;;;;;;;;;4979742;28;20026;-61
2023/06/21 10:08:42;;;;;;;8.70;4.95;;;;;;;;;;4983091;28;20034;-61
2023/06/21 10:11:08;;;;;;;7.43;4.18;;;;;;;;;;4979799;28;21851;-61
2023/06/21 10:13:37;;;;;;;8.15;4.18;;;;;;;;;;4980801;28;20072;-61
2023/06/21 10:16:03;;;;;;;6.18;4.07;;;;;;;;;;4979814;28;20472;-61
2023/06/21 10:18:30;;;;;;;6.60;4.18;;;;;;;;;;4978099;28;20030;-61
2023/06/21 10:20:57;;;;;;;11.43;4.60;;;;;;;;;;4980204;28;20030;-61
2023/06/21 10:23:27;;;;;;;16.35;4.30;;;;;;;;;;4977829;28;20085;-61
2023/06/21 10:25:54;;;;;;;9.23;3.97;;;;;;;;;;4979753;28;20026;-61
2023/06/21 10:28:21;;;;;;;6.28;4.18;;;;;;;;;;4977966;28;20146;-61
2023/06/21 10:30:51;;;;;;;8.27;3.72;;;;;;;;;;4979363;28;20030;-61
2023/06/21 10:33:17;;;;;;;7.85;3.47;;;;;;;;;;4977770;28;20037;-61
2023/06/21 10:35:45;;;;;;;7.82;3.35;;;;;;;;;;4979430;28;20053;-61
2023/06/21 10:38:30;;;;;;;7.00;4.20;;;;;;;;;;4979525;28;20049;-61
2023/06/21 10:40:56;;;;;;;6.55;3.63;;;;;;;;;;4978685;28;20153;-61
2023/06/21 10:43:23;;;;;;;6.05;3.33;;;;;;;;;;4979552;28;20121;-61
2023/06/21 10:45:50;;;;;;;4.65;2.35;;;;;;;;;;4977975;28;20034;-61
2023/06/21 10:48:16;;;;;;;6.30;3.22;;;;;;;;;;4977895;28;20531;-61
2023/06/21 10:50:42;;;;;;;7.13;3.78;;;;;;;;;;4976822;28;20073;-61
2023/06/21 10:53:09;;;;;;;7.70;3.97;;;;;;;;;;4978377;28;21068;-61
2023/06/21 10:55:39;;;;;;;6.97;4.05;;;;;;;;;;4978473;28;20065;-61
2023/06/21 10:58:05;;;;;;;4.85;3.22;;;;;;;;;;4976272;28;20057;-61
2023/06/21 11:00:31;;;;;;;6.68;2.85;;;;;;;;;;4979823;28;20038;-61
2023/06/21 11:02:58;;;;;;;6.40;2.83;;;;;;;;;;4976272;28;20045;-61
2023/06/21 11:05:25;;;;;;;7.45;3.38;;;;;;;;;;4966362;28;20034;-61
2023/06/21 11:08:09;;;;;;;6.20;3.88;;;;;;;;;;4979123;28;20034;-61
2023/06/21 11:10:49;;;;;;;7.80;2.92;;;;;;;;;;4979374;28;20484;-61
2023/06/21 11:13:15;;;;;;;6.40;2.70;;;;;;;;;;4976864;28;20023;-61
2023/06/21 11:15:42;;;;;;;4.90;2.70;;;;;;;;;;4978544;28;20038;-61
2023/06/21 11:18:09;;;;;;;6.25;3.03;;;;;;;;;;4977001;28;20038;-61
2023/06/21 11:20:48;;;;;;;9.48;3.35;;;;;;;;;;4977567;28;20033;-61
2023/06/21 11:23:19;;;;;;;4.70;2.75;;;;;;;;;;4978365;28;20038;-61
2023/06/21 11:25:51;;;;;;;6.68;3.38;;;;;;;;;;4978179;28;20034;-61
2023/06/21 11:28:21;;;;;;;7.35;3.00;;;;;;;;;;4965676;28;20026;-61
2023/06/21 11:30:59;;;;;;;5.57;3.00;;;;;;;;;;4978753;28;20038;-61
2023/06/21 11:33:29;;;;;;;8.07;3.90;;;;;;;;;;4992782;28;20159;-61
2023/06/21 11:36:02;;;;;;;5.38;2.50;;;;;;;;;;4977233;28;20159;-61
2023/06/21 11:38:29;;;;;;;5.03;2.60;;;;;;;;;;4978898;28;20026;-61
2023/06/21 11:40:55;;;;;;;4.75;2.53;;;;;;;;;;4977357;28;20065;-61
2023/06/21 11:43:21;;;;;;;6.97;3.28;;;;;;;;;;4977227;28;20125;-61
2023/06/21 11:45:57;;;;;;;5.25;3.33;;;;;;;;;;4978450;28;20030;-61
2023/06/21 11:48:27;;;;;;;5.75;3.22;;;;;;;;;;4978397;28;20042;-61
2023/06/21 11:50:55;;;;;;;6.03;3.63;;;;;;;;;;4978108;28;20044;-61
2023/06/21 11:53:28;;;;;;;5.80;3.65;;;;;;;;;;4977830;28;20117;-61
2023/06/21 11:56:01;;;;;;;8.63;4.45;;;;;;;;;;4978142;28;20065;-61
2023/06/21 11:58:27;;;;;;;8.07;4.68;;;;;;;;;;4977078;28;20046;-61
2023/06/21 12:00:54;;;;;;;8.07;4.43;;;;;;;;;;4978660;28;21836;-61
2023/06/21 12:03:21;;;;;;;7.00;4.75;;;;;;;;;;4976795;28;20146;-61
2023/06/21 12:05:49;;;;;;;9.05;5.65;;;;;;;;;;4977923;28;20046;-61
2023/06/21 12:08:16;;;;;;;7.78;5.55;;;;;;;;;;4976884;28;20172;-61
2023/06/21 12:10:42;;;;;;;7.82;5.07;;;;;;;;;;4975475;28;21103;-61
2023/06/21 12:13:09;;;;;;;8.32;4.97;;;;;;;;;;4981499;28;20068;-62
2023/06/21 12:15:35;;;;;;;7.43;4.72;;;;;;;;;;4976149;28;20038;-61
2023/06/21 12:18:02;;;;;;;7.03;4.40;;;;;;;;;;4977275;28;20049;-61
2023/06/21 12:20:28;;;;;;;8.13;4.82;;;;;;;;;;4974604;28;20038;-61
2023/06/21 12:22:55;;;;;;;8.85;5.80;;;;;;;;;;4977795;28;20576;-61
2023/06/21 12:25:22;;;;;;;8.98;5.47;;;;;;;;;;4976648;28;20171;-61
2023/06/21 12:27:57;;;;;;;7.25;4.05;;;;;;;;;;4977384;28;20034;-61
2023/06/21 12:30:27;;;;;;;6.57;3.47;;;;;;;;;;4976275;28;21270;-61
2023/06/21 12:32:55;;;;;;;7.15;3.72;;;;;;;;;;4977476;28;20034;-61
2023/06/21 12:35:21;;;;;;;6.20;3.10;;;;;;;;;;4976054;28;20442;-61
2023/06/21 12:37:47;;;;;;;7.80;3.10;;;;;;;;;;4975926;28;20042;-61
2023/06/21 12:40:20;;;;;;;6.97;3.10;;;;;;;;;;4976908;28;21733;-61
2023/06/21 12:42:46;;;;;;;5.00;2.30;;;;;;;;;;4976284;28;20048;-61
2023/06/21 12:45:19;;;;;;;4.80;2.67;;;;;;;;;;4977102;28;20468;-61
2023/06/21 12:47:49;;;;;;;5.55;2.60;;;;;;;;;;4977321;28;20035;-61
2023/06/21 12:50:20;;;;;;;6.13;2.72;;;;;;;;;;4974846;28;20022;-61
2023/06/21 12:52:46;;;;;;;6.68;2.55;;;;;;;;;;4976650;28;20034;-61
2023/06/21 12:55:16;;;;;;;5.50;2.65;;;;;;;;;;4976140;28;20049;-61
2023/06/21 12:57:42;;;;;;;5.95;3.17;;;;;;;;;;4974003;28;20038;-59
2023/06/21 13:00:09;;;;;;;6.57;2.67;;;;;;;;;;4975610;28;20042;-60
2023/06/21 13:02:35;;;;;;;5.47;2.58;;;;;;;;;;4976307;28;20058;-59
2023/06/21 13:05:02;;;;;;;5.43;2.20;;;;;;;;;;4978921;28;20030;-59
2023/06/21 13:07:28;;;;;;;5.78;2.70;;;;;;;;;;4981251;28;20034;-59
2023/06/21 13:09:54;;;;;;;5.15;2.50;;;;;;;;;;4981190;28;20027;-59
2023/06/21 13:12:20;;;;;;;6.38;2.70;;;;;;;;;;4981919;28;20677;-59
2023/06/21 13:14:46;;;;;;;4.68;2.35;;;;;;;;;;4982088;28;20070;-59
2023/06/21 13:17:13;;;;;;;5.35;2.47;;;;;;;;;;4979162;28;20958;-59
2023/06/21 13:19:40;;;;;;;5.25;2.95;;;;;;;;;;4981529;28;20038;-59
2023/06/21 13:22:06;;;;;;;7.72;4.20;;;;;;;;;;4980507;28;20034;-60
2023/06/21 13:24:32;;;;;;;7.40;3.38;;;;;;;;;;4982054;28;20042;-59
2023/06/21 13:26:58;;;;;;;6.38;3.03;;;;;;;;;;4980304;28;20030;-59
2023/06/21 13:29:24;;;;;;;6.47;3.20;;;;;;;;;;4980612;28;20045;-59
2023/06/21 13:31:50;;;;;;;8.85;3.60;;;;;;;;;;4981522;28;20038;-59
2023/06/21 13:34:17;;;;;;;5.32;2.85;;;;;;;;;;4978715;28;21044;-59
2023/06/21 13:36:43;;;;;;;7.05;3.08;;;;;;;;;;4978361;28;20424;-59
2023/06/21 13:39:09;;;;;;;5.90;2.45;;;;;;;;;;4980622;28;20472;-59
2023/06/21 13:41:35;;;;;;;5.78;2.65;;;;;;;;;;4980491;28;20338;-59
2023/06/21 13:44:01;;;;;;;7.25;3.17;;;;;;;;;;4979553;28;21010;-59
2023/06/21 13:46:27;;;;;;;9.68;3.97;;;;;;;;;;4977541;28;20446;-59
2023/06/21 13:48:53;;;;;;;7.72;4.25;;;;;;;;;;4978929;28;20401;-59
2023/06/21 13:51:19;;;;;;;8.90;4.88;;;;;;;;;;4981436;28;20026;-59
2023/06/21 13:53:45;;;;;;;7.85;4.32;;;;;;;;;;4978399;28;20030;-59
2023/06/21 13:56:11;;;;;;;8.70;4.90;;;;;;;;;;4976170;28;20118;-59
2023/06/21 13:58:37;;;;;;;9.88;4.75;;;;;;;;;;4980843;28;20042;-59
2023/06/21 14:01:03;;;;;;;7.30;4.50;;;;;;;;;;4979740;28;20734;-59
2023/06/21 14:03:29;;;;;;;8.30;4.35;;;;;;;;;;4978385;28;20912;-59
2023/06/21 14:05:55;;;;;;;9.07;5.55;;;;;;;;;;4979206;28;20041;-59
2023/06/21 14:08:21;;;;;;;8.15;4.65;;;;;;;;;;4979102;28;20035;-59
2023/06/21 14:10:48;;;;;;;10.23;4.40;;;;;;;;;;4979654;28;20030;-59
2023/06/21 14:13:14;;;;;;;8.20;4.75;;;;;;;;;;4979056;28;20132;-59
2023/06/21 14:15:40;;;;;;;7.57;4.57;;;;;;;;;;4979625;28;20053;-59
2023/06/21 14:18:07;;;;;;;10.57;6.28;;;;;;;;;;4980170;28;20560;-59
2023/06/21 14:20:34;;;;;;;11.27;6.60;;;;;;;;;;4977971;28;20058;-59
2023/06/21 14:23:00;;;;;;;11.63;6.93;;;;;;;;;;4979128;28;20414;-59
2023/06/21 14:25:26;;;;;;;12.57;8.85;;;;;;;;;;4980021;28;20038;-59
2023/06/21 14:27:52;;;;;;;11.63;7.35;;;;;;;;;;4979156;28;20026;-59